createdAt,value
2023-01-25T00:00:25.607Z,92.39
2023-01-25T00:05:27.402Z,92.00
2023-01-25T00:10:29.262Z,92.15
2023-01-25T00:15:30.885Z,92.11
2023-01-25T00:20:32.535Z,92.56
2023-01-25T00:25:34.280Z,92.15
2023-01-25T00:30:35.977Z,92.36
2023-01-25T00:35:38.655Z,92.37
2023-01-25T00:40:40.288Z,92.47
2023-01-25T00:45:42.083Z,92.35
2023-01-25T00:50:44.085Z,92.44
2023-01-25T00:55:53.392Z,92.13
2023-01-25T01:00:56.190Z,92.22
2023-01-25T01:06:01.094Z,92.18
2023-01-25T01:11:06.186Z,91.93
2023-01-25T01:16:11.776Z,92.14
2023-01-25T01:21:14.206Z,91.84
2023-01-25T01:26:21.440Z,91.94
2023-01-25T01:31:24.352Z,91.96
2023-01-25T01:36:38.371Z,91.60
2023-01-25T01:41:40.121Z,91.61
2023-01-25T01:46:51.566Z,91.40
2023-01-25T01:52:20.221Z,91.53
2023-01-25T01:57:26.085Z,91.57
2023-01-25T02:02:29.715Z,91.29
2023-01-25T02:07:37.379Z,91.41
2023-01-25T02:12:39.453Z,91.12
2023-01-25T02:17:42.761Z,91.13
2023-01-25T02:23:02.135Z,91.07
2023-01-25T02:28:11.035Z,90.81
2023-01-25T02:33:13.098Z,91.17
2023-01-25T02:38:18.272Z,90.88
2023-01-25T02:43:20.635Z,90.99
2023-01-25T02:48:22.448Z,91.04
2023-01-25T02:53:24.967Z,91.04
2023-01-25T02:58:27.984Z,91.07
2023-01-25T03:03:29.683Z,91.29
2023-01-25T03:08:31.482Z,91.15
2023-01-25T03:13:34.675Z,90.95
2023-01-25T03:18:38.149Z,90.95
2023-01-25T03:23:40.944Z,90.70
2023-01-25T03:28:44.790Z,90.68
2023-01-25T03:33:47.020Z,90.44
2023-01-25T03:38:48.831Z,90.41
2023-01-25T03:43:50.823Z,90.39
2023-01-25T03:48:53.160Z,90.51
2023-01-25T03:53:55.041Z,90.02
2023-01-25T03:58:56.945Z,89.77
2023-01-25T04:03:58.745Z,90.26
2023-01-25T04:09:00.647Z,90.26
2023-01-25T04:14:10.258Z,89.83
2023-01-25T04:19:21.003Z,89.78
2023-01-25T04:24:22.866Z,89.28
2023-01-25T04:29:35.495Z,89.66
2023-01-25T04:34:42.653Z,89.76
2023-01-25T04:39:49.417Z,89.85
2023-01-25T04:44:51.435Z,89.77
2023-01-25T04:49:54.004Z,89.66
2023-01-25T04:54:59.344Z,89.91
2023-01-25T05:00:01.856Z,89.69
2023-01-25T05:05:04.660Z,89.71
2023-01-25T05:10:07.996Z,89.68
2023-01-25T05:15:13.777Z,89.44
2023-01-25T05:20:15.493Z,89.32
2023-01-25T05:25:36.224Z,89.39
2023-01-25T05:30:38.922Z,89.19
2023-01-25T05:35:56.256Z,89.46
2023-01-25T05:40:59.643Z,89.12
2023-01-25T05:46:02.576Z,89.32
2023-01-25T05:51:04.404Z,89.22
2023-01-25T05:56:08.992Z,88.98
2023-01-25T06:01:11.671Z,89.01
2023-01-25T06:06:22.036Z,89.16
2023-01-25T06:11:24.563Z,89.02
2023-01-25T06:16:28.506Z,88.78
2023-01-25T06:21:50.753Z,90.01
2023-01-25T06:26:52.463Z,89.35
2023-01-25T06:31:55.641Z,88.49
2023-01-25T06:36:57.370Z,86.99
2023-01-25T06:41:59.038Z,86.97
2023-01-25T06:47:00.851Z,86.61
2023-01-25T06:52:02.637Z,85.70
2023-01-25T06:57:04.354Z,85.80
2023-01-25T07:02:06.484Z,85.58
2023-01-25T07:07:09.288Z,85.17
2023-01-25T07:12:10.943Z,84.47
2023-01-25T07:17:12.651Z,84.54
2023-01-25T07:22:14.516Z,84.67
2023-01-25T07:27:17.443Z,85.01
2023-01-25T07:32:19.131Z,85.29
2023-01-25T07:37:20.865Z,85.93
2023-01-25T07:42:22.625Z,85.71
2023-01-25T07:47:27.860Z,85.47
2023-01-25T07:52:29.521Z,85.84
2023-01-25T07:57:31.855Z,86.44
2023-01-25T08:02:33.715Z,86.38
2023-01-25T08:07:35.443Z,86.41
2023-01-25T08:12:37.946Z,86.91
2023-01-25T08:17:40.227Z,86.70
2023-01-25T08:22:42.147Z,87.09
2023-01-25T08:27:43.965Z,87.06
2023-01-25T08:32:45.659Z,87.17
2023-01-25T08:37:47.453Z,87.19
2023-01-25T08:42:49.256Z,87.13
2023-01-25T08:47:50.920Z,87.19
2023-01-25T08:52:52.585Z,87.04
2023-01-25T08:57:56.460Z,86.86
2023-01-25T09:02:58.221Z,86.86
2023-01-25T09:08:00.654Z,86.75
2023-01-25T09:13:02.775Z,86.80
2023-01-25T09:18:04.579Z,86.64
2023-01-25T09:23:06.275Z,86.99
2023-01-25T09:28:11.564Z,87.06
2023-01-25T09:33:16.778Z,87.27
2023-01-25T09:38:18.551Z,86.96
2023-01-25T09:43:44.514Z,87.12
2023-01-25T09:49:07.608Z,87.33
2023-01-25T09:54:10.409Z,87.51
2023-01-25T09:59:19.758Z,87.61
2023-01-25T10:04:35.676Z,87.60
2023-01-25T10:09:44.876Z,87.61
2023-01-25T10:14:47.567Z,87.99
2023-01-25T10:19:55.482Z,88.23
2023-01-25T10:25:32.094Z,88.13
2023-01-25T10:30:56.749Z,88.23
2023-01-25T10:36:05.325Z,87.99
2023-01-25T10:41:36.347Z,88.21
2023-01-25T10:46:40.041Z,88.14
2023-01-25T10:51:41.752Z,87.72
2023-01-25T10:56:45.983Z,87.95
2023-01-25T11:01:48.169Z,87.87
2023-01-25T11:06:51.509Z,88.20
2023-01-25T11:11:56.291Z,88.31
2023-01-25T11:16:59.918Z,88.18
2023-01-25T11:22:06.159Z,88.20
2023-01-25T11:27:21.379Z,88.07
2023-01-25T11:32:25.260Z,87.80
2023-01-25T11:37:54.602Z,87.56
2023-01-25T11:43:28.627Z,87.58
2023-01-25T11:49:02.692Z,87.55
2023-01-25T11:54:17.558Z,87.08
2023-01-25T11:59:31.554Z,87.69
2023-01-25T12:04:36.028Z,87.93
2023-01-25T12:09:49.831Z,87.53
2023-01-25T12:15:15.931Z,87.73
2023-01-25T12:20:31.677Z,87.59
2023-01-25T12:26:04.328Z,87.75
2023-01-25T12:31:16.832Z,87.94
2023-01-25T12:36:28.290Z,87.61
2023-01-25T12:41:52.035Z,87.54
2023-01-25T12:47:13.428Z,87.68
2023-01-25T12:52:24.358Z,87.88
2023-01-25T12:57:33.968Z,87.69
2023-01-25T13:03:13.013Z,87.64
2023-01-25T13:08:32.183Z,87.31
2023-01-25T13:13:34.695Z,87.39
2023-01-25T13:18:38.123Z,87.57
2023-01-25T13:23:46.061Z,87.73
2023-01-25T13:28:48.834Z,87.69
2023-01-25T13:33:50.627Z,87.82
2023-01-25T13:38:52.263Z,89.05
2023-01-25T13:44:15.784Z,87.83
2023-01-25T13:49:27.156Z,87.25
2023-01-25T13:54:28.998Z,87.14
2023-01-25T13:59:30.959Z,87.28
2023-01-25T14:04:32.846Z,86.53
2023-01-25T14:09:34.777Z,87.17
2023-01-25T14:14:37.885Z,87.23
2023-01-25T14:19:41.428Z,87.33
2023-01-25T14:24:43.148Z,87.04
2023-01-25T14:29:48.746Z,86.99
2023-01-25T14:34:50.524Z,87.05
2023-01-25T14:39:52.516Z,87.27
2023-01-25T14:44:54.407Z,87.52
2023-01-25T14:49:56.172Z,87.47
2023-01-25T14:54:59.961Z,87.37
2023-01-25T15:00:09.202Z,87.19
2023-01-25T15:05:33.718Z,87.30
2023-01-25T15:10:37.468Z,87.28
2023-01-25T15:15:53.536Z,87.66
2023-01-25T15:20:55.446Z,87.05
2023-01-25T15:25:59.944Z,87.05
2023-01-25T15:31:04.235Z,87.42
2023-01-25T15:36:06.316Z,87.49
2023-01-25T15:41:08.044Z,87.55
2023-01-25T15:46:22.685Z,87.41
2023-01-25T15:51:24.519Z,87.34
2023-01-25T15:56:37.023Z,87.61
2023-01-25T16:01:38.843Z,87.97
2023-01-25T16:06:51.642Z,87.94
2023-01-25T16:11:56.380Z,88.12
2023-01-25T16:17:02.333Z,87.74
2023-01-25T16:22:04.123Z,89.57
2023-01-25T16:27:05.857Z,87.54
2023-01-25T16:32:07.543Z,87.73
2023-01-25T16:37:17.274Z,87.41
2023-01-25T16:42:21.168Z,87.26
2023-01-25T16:47:24.262Z,87.49
2023-01-25T16:52:25.928Z,87.29
2023-01-25T16:57:27.619Z,87.35
2023-01-25T17:02:29.447Z,87.81
2023-01-25T17:07:31.532Z,87.71
2023-01-25T17:12:33.399Z,87.83
2023-01-25T17:17:35.322Z,87.87
2023-01-25T17:22:38.086Z,88.04
2023-01-25T17:27:39.781Z,88.04
2023-01-25T17:32:41.551Z,87.57
2023-01-25T17:37:43.163Z,87.80
2023-01-25T17:42:44.965Z,87.89
2023-01-25T17:47:46.639Z,87.70
2023-01-25T17:52:48.434Z,87.65
2023-01-25T17:57:51.260Z,87.92
2023-01-25T18:02:53.663Z,87.91
2023-01-25T18:07:55.373Z,87.62
2023-01-25T18:13:04.440Z,87.64
2023-01-25T18:18:08.093Z,87.57
2023-01-25T18:23:09.921Z,87.43
2023-01-25T18:28:13.740Z,87.27
2023-01-25T18:33:15.311Z,87.33
2023-01-25T18:38:17.696Z,87.66
2023-01-25T18:43:20.131Z,88.18
2023-01-25T18:48:30.235Z,88.01
2023-01-25T18:53:33.677Z,88.24
2023-01-25T18:58:37.062Z,88.22
2023-01-25T19:03:38.876Z,88.44
2023-01-25T19:08:43.146Z,88.33
2023-01-25T19:13:45.159Z,88.64
2023-01-25T19:18:52.648Z,89.09
2023-01-25T19:23:55.867Z,89.06
2023-01-25T19:28:57.875Z,89.29
2023-01-25T19:34:02.018Z,89.28
2023-01-25T19:39:05.529Z,89.31
2023-01-25T19:44:09.521Z,89.48
2023-01-25T19:49:13.214Z,89.66
2023-01-25T19:54:17.303Z,89.56
2023-01-25T19:59:21.585Z,89.63
2023-01-25T20:04:24.051Z,89.57
2023-01-25T20:09:27.860Z,89.61
2023-01-25T20:14:29.782Z,89.46
2023-01-25T20:19:32.710Z,89.75
2023-01-25T20:24:34.432Z,89.24
2023-01-25T20:29:36.232Z,89.14
2023-01-25T20:34:38.032Z,89.09
2023-01-25T20:39:39.795Z,88.80
2023-01-25T20:44:41.556Z,89.09
2023-01-25T20:49:43.448Z,88.85
2023-01-25T20:54:45.209Z,88.49
2023-01-25T20:59:46.879Z,88.48
2023-01-25T21:04:48.571Z,88.36
2023-01-25T21:09:50.214Z,88.45
2023-01-25T21:14:52.256Z,88.45
2023-01-25T21:19:53.891Z,88.36
2023-01-25T21:24:55.820Z,88.18
2023-01-25T21:29:57.527Z,87.99
2023-01-25T21:34:59.241Z,87.86
2023-01-25T21:40:00.925Z,87.68
2023-01-25T21:45:21.302Z,87.47
2023-01-25T21:50:41.503Z,87.35
2023-01-25T21:55:43.388Z,87.08
2023-01-25T22:00:45.005Z,87.25
2023-01-25T22:05:54.095Z,87.49
2023-01-25T22:11:08.047Z,87.54
2023-01-25T22:16:11.153Z,87.67
2023-01-25T22:21:21.581Z,87.88
2023-01-25T22:26:24.873Z,87.60
2023-01-25T22:31:29.026Z,87.66
2023-01-25T22:36:31.303Z,87.83
2023-01-25T22:41:36.992Z,87.91
2023-01-25T22:46:38.666Z,87.37
2023-01-25T22:51:40.364Z,87.24
2023-01-25T22:56:42.031Z,87.28
2023-01-25T23:01:43.721Z,87.42
2023-01-25T23:06:45.324Z,87.54
2023-01-25T23:11:46.965Z,87.46
2023-01-25T23:16:48.703Z,87.74
2023-01-25T23:21:50.395Z,87.62
2023-01-25T23:26:51.999Z,87.17
2023-01-25T23:31:53.691Z,87.09
2023-01-25T23:36:55.377Z,87.16
2023-01-25T23:41:57.129Z,86.76
2023-01-25T23:46:59.070Z,87.06
2023-01-25T23:52:01.115Z,87.32
2023-01-25T23:57:02.993Z,87.34
